sensor_id;sensor_type;location;lat;lon;timestamp;P1;durP1;ratioP1;P2;durP2;ratioP2
38113;SDS011;23926;53.222;6.354;2022-10-24T00:01:36;7.60;;;3.60;;
38113;SDS011;23926;53.222;6.354;2022-10-24T00:04:02;6.25;;;3.38;;
38113;SDS011;23926;53.222;6.354;2022-10-24T00:06:28;5.43;;;3.20;;
38113;SDS011;23926;53.222;6.354;2022-10-24T00:08:53;9.15;;;3.60;;
38113;SDS011;23926;53.222;6.354;2022-10-24T00:11:20;7.35;;;3.97;;
38113;SDS011;23926;53.222;6.354;2022-10-24T00:13:50;5.78;;;3.15;;
38113;SDS011;23926;53.222;6.354;2022-10-24T00:16:16;4.85;;;3.60;;
38113;SDS011;23926;53.222;6.354;2022-10-24T00:18:42;6.55;;;3.08;;
38113;SDS011;23926;53.222;6.354;2022-10-24T00:21:07;8.23;;;2.92;;
38113;SDS011;23926;53.222;6.354;2022-10-24T00:23:34;6.05;;;3.30;;
38113;SDS011;23926;53.222;6.354;2022-10-24T00:25:59;7.72;;;3.10;;
38113;SDS011;23926;53.222;6.354;2022-10-24T00:28:26;4.78;;;3.08;;
38113;SDS011;23926;53.222;6.354;2022-10-24T00:30:52;5.78;;;3.00;;
38113;SDS011;23926;53.222;6.354;2022-10-24T00:33:18;6.20;;;3.55;;
38113;SDS011;23926;53.222;6.354;2022-10-24T00:35:43;6.30;;;2.78;;
38113;SDS011;23926;53.222;6.354;2022-10-24T00:38:09;4.70;;;2.97;;
38113;SDS011;23926;53.222;6.354;2022-10-24T00:40:34;9.75;;;3.47;;
38113;SDS011;23926;53.222;6.354;2022-10-24T00:42:59;5.40;;;2.80;;
38113;SDS011;23926;53.222;6.354;2022-10-24T00:45:36;5.32;;;2.92;;
38113;SDS011;23926;53.222;6.354;2022-10-24T00:50:57;7.03;;;3.20;;
38113;SDS011;23926;53.222;6.354;2022-10-24T00:53:26;4.18;;;2.60;;
38113;SDS011;23926;53.222;6.354;2022-10-24T00:55:54;4.90;;;2.80;;
38113;SDS011;23926;53.222;6.354;2022-10-24T00:58:22;4.57;;;2.50;;
38113;SDS011;23926;53.222;6.354;2022-10-24T01:00:50;8.50;;;2.78;;
38113;SDS011;23926;53.222;6.354;2022-10-24T01:03:16;5.47;;;2.83;;
38113;SDS011;23926;53.222;6.354;2022-10-24T01:28:23;7.32;;;2.60;;
38113;SDS011;23926;53.222;6.354;2022-10-24T01:31:05;12.75;;;3.03;;
38113;SDS011;23926;53.222;6.354;2022-10-24T01:33:39;6.85;;;2.03;;
38113;SDS011;23926;53.222;6.354;2022-10-24T01:36:12;4.50;;;2.50;;
38113;SDS011;23926;53.222;6.354;2022-10-24T01:38:48;5.35;;;2.38;;
38113;SDS011;23926;53.222;6.354;2022-10-24T01:41:22;8.50;;;2.45;;
38113;SDS011;23926;53.222;6.354;2022-10-24T01:43:53;7.07;;;2.30;;
38113;SDS011;23926;53.222;6.354;2022-10-24T01:46:27;4.25;;;2.22;;
38113;SDS011;23926;53.222;6.354;2022-10-24T01:49:03;5.18;;;2.35;;
38113;SDS011;23926;53.222;6.354;2022-10-24T01:51:32;5.40;;;2.78;;
38113;SDS011;23926;53.222;6.354;2022-10-24T01:53:58;4.57;;;2.45;;
38113;SDS011;23926;53.222;6.354;2022-10-24T01:56:25;3.83;;;2.25;;
38113;SDS011;23926;53.222;6.354;2022-10-24T01:58:51;6.82;;;2.70;;
38113;SDS011;23926;53.222;6.354;2022-10-24T02:01:18;9.35;;;2.47;;
38113;SDS011;23926;53.222;6.354;2022-10-24T02:03:49;8.07;;;2.53;;
38113;SDS011;23926;53.222;6.354;2022-10-24T02:06:27;5.97;;;2.67;;
38113;SDS011;23926;53.222;6.354;2022-10-24T02:08:57;4.75;;;2.47;;
38113;SDS011;23926;53.222;6.354;2022-10-24T02:11:26;6.43;;;2.72;;
38113;SDS011;23926;53.222;6.354;2022-10-24T02:13:54;5.55;;;2.65;;
38113;SDS011;23926;53.222;6.354;2022-10-24T02:16:26;7.85;;;2.92;;
38113;SDS011;23926;53.222;6.354;2022-10-24T02:18:52;5.78;;;2.60;;
38113;SDS011;23926;53.222;6.354;2022-10-24T02:23:52;5.80;;;3.17;;
38113;SDS011;23926;53.222;6.354;2022-10-24T02:29:01;6.00;;;2.85;;
38113;SDS011;23926;53.222;6.354;2022-10-24T02:31:37;3.85;;;2.35;;
38113;SDS011;23926;53.222;6.354;2022-10-24T02:34:06;7.95;;;3.13;;
38113;SDS011;23926;53.222;6.354;2022-10-24T02:36:34;7.28;;;2.53;;
38113;SDS011;23926;53.222;6.354;2022-10-24T02:39:00;5.55;;;2.75;;
38113;SDS011;23926;53.222;6.354;2022-10-24T02:41:29;6.65;;;2.90;;
38113;SDS011;23926;53.222;6.354;2022-10-24T02:43:58;5.70;;;2.63;;
38113;SDS011;23926;53.222;6.354;2022-10-24T02:46:26;5.78;;;2.88;;
38113;SDS011;23926;53.222;6.354;2022-10-24T02:48:54;6.93;;;3.25;;
38113;SDS011;23926;53.222;6.354;2022-10-24T02:51:23;4.68;;;3.10;;
38113;SDS011;23926;53.222;6.354;2022-10-24T02:53:51;6.97;;;3.03;;
38113;SDS011;23926;53.222;6.354;2022-10-24T02:56:16;5.65;;;2.75;;
38113;SDS011;23926;53.222;6.354;2022-10-24T02:58:42;9.18;;;3.20;;
38113;SDS011;23926;53.222;6.354;2022-10-24T03:01:07;6.55;;;2.90;;
38113;SDS011;23926;53.222;6.354;2022-10-24T03:03:33;6.03;;;2.63;;
38113;SDS011;23926;53.222;6.354;2022-10-24T03:05:58;3.35;;;2.58;;
38113;SDS011;23926;53.222;6.354;2022-10-24T03:08:24;10.82;;;2.97;;
38113;SDS011;23926;53.222;6.354;2022-10-24T03:10:49;7.70;;;3.30;;
38113;SDS011;23926;53.222;6.354;2022-10-24T03:13:15;6.53;;;2.80;;
38113;SDS011;23926;53.222;6.354;2022-10-24T03:15:40;8.55;;;3.08;;
38113;SDS011;23926;53.222;6.354;2022-10-24T03:18:05;5.68;;;3.15;;
38113;SDS011;23926;53.222;6.354;2022-10-24T03:20:31;6.45;;;2.85;;
38113;SDS011;23926;53.222;6.354;2022-10-24T03:22:56;5.20;;;3.22;;
38113;SDS011;23926;53.222;6.354;2022-10-24T03:25:22;10.77;;;2.83;;
38113;SDS011;23926;53.222;6.354;2022-10-24T03:27:47;3.08;;;2.33;;
38113;SDS011;23926;53.222;6.354;2022-10-24T03:30:13;6.28;;;3.53;;
38113;SDS011;23926;53.222;6.354;2022-10-24T03:32:38;6.55;;;2.67;;
38113;SDS011;23926;53.222;6.354;2022-10-24T03:35:04;6.03;;;2.65;;
38113;SDS011;23926;53.222;6.354;2022-10-24T03:37:29;8.63;;;3.25;;
38113;SDS011;23926;53.222;6.354;2022-10-24T03:39:55;7.03;;;2.90;;
38113;SDS011;23926;53.222;6.354;2022-10-24T03:42:21;7.13;;;2.72;;
38113;SDS011;23926;53.222;6.354;2022-10-24T03:44:46;4.25;;;2.72;;
38113;SDS011;23926;53.222;6.354;2022-10-24T03:47:12;4.22;;;2.63;;
38113;SDS011;23926;53.222;6.354;2022-10-24T03:49:38;7.47;;;2.90;;
38113;SDS011;23926;53.222;6.354;2022-10-24T03:52:03;5.72;;;2.50;;
38113;SDS011;23926;53.222;6.354;2022-10-24T03:54:29;4.22;;;2.53;;
38113;SDS011;23926;53.222;6.354;2022-10-24T03:56:54;5.80;;;2.40;;
38113;SDS011;23926;53.222;6.354;2022-10-24T03:59:20;10.18;;;3.83;;
38113;SDS011;23926;53.222;6.354;2022-10-24T04:01:45;6.65;;;2.65;;
38113;SDS011;23926;53.222;6.354;2022-10-24T04:04:11;6.90;;;2.90;;
38113;SDS011;23926;53.222;6.354;2022-10-24T04:06:36;4.30;;;2.80;;
38113;SDS011;23926;53.222;6.354;2022-10-24T04:09:02;7.13;;;2.95;;
38113;SDS011;23926;53.222;6.354;2022-10-24T04:11:28;7.82;;;2.80;;
38113;SDS011;23926;53.222;6.354;2022-10-24T04:13:53;6.80;;;3.17;;
38113;SDS011;23926;53.222;6.354;2022-10-24T04:16:19;6.90;;;2.78;;
38113;SDS011;23926;53.222;6.354;2022-10-24T04:18:44;5.75;;;2.78;;
38113;SDS011;23926;53.222;6.354;2022-10-24T04:21:10;8.10;;;3.33;;
38113;SDS011;23926;53.222;6.354;2022-10-24T04:23:36;6.15;;;2.70;;
38113;SDS011;23926;53.222;6.354;2022-10-24T04:26:08;9.07;;;3.22;;
38113;SDS011;23926;53.222;6.354;2022-10-24T04:28:35;8.10;;;2.47;;
38113;SDS011;23926;53.222;6.354;2022-10-24T04:31:00;9.20;;;3.05;;
38113;SDS011;23926;53.222;6.354;2022-10-24T04:33:25;4.80;;;2.70;;
38113;SDS011;23926;53.222;6.354;2022-10-24T04:35:51;6.68;;;2.65;;
38113;SDS011;23926;53.222;6.354;2022-10-24T04:38:17;6.57;;;2.85;;
38113;SDS011;23926;53.222;6.354;2022-10-24T04:40:50;7.90;;;2.78;;
38113;SDS011;23926;53.222;6.354;2022-10-24T04:43:17;7.18;;;2.65;;
38113;SDS011;23926;53.222;6.354;2022-10-24T04:45:43;9.02;;;3.65;;
38113;SDS011;23926;53.222;6.354;2022-10-24T04:48:09;6.60;;;3.03;;
38113;SDS011;23926;53.222;6.354;2022-10-24T04:50:35;4.18;;;2.42;;
38113;SDS011;23926;53.222;6.354;2022-10-24T04:53:01;6.03;;;2.90;;
38113;SDS011;23926;53.222;6.354;2022-10-24T04:55:27;9.20;;;3.22;;
38113;SDS011;23926;53.222;6.354;2022-10-24T04:57:53;10.05;;;2.97;;
38113;SDS011;23926;53.222;6.354;2022-10-24T05:00:18;8.50;;;3.20;;
38113;SDS011;23926;53.222;6.354;2022-10-24T05:02:44;5.97;;;2.60;;
38113;SDS011;23926;53.222;6.354;2022-10-24T05:05:10;7.75;;;2.28;;
38113;SDS011;23926;53.222;6.354;2022-10-24T05:07:35;5.85;;;2.58;;
38113;SDS011;23926;53.222;6.354;2022-10-24T05:10:01;8.90;;;2.90;;
38113;SDS011;23926;53.222;6.354;2022-10-24T05:12:27;6.13;;;2.95;;
38113;SDS011;23926;53.222;6.354;2022-10-24T05:14:53;8.95;;;2.92;;
38113;SDS011;23926;53.222;6.354;2022-10-24T05:17:18;6.68;;;2.60;;
38113;SDS011;23926;53.222;6.354;2022-10-24T05:19:44;8.88;;;2.75;;
38113;SDS011;23926;53.222;6.354;2022-10-24T05:22:09;6.13;;;3.17;;
38113;SDS011;23926;53.222;6.354;2022-10-24T05:24:34;7.60;;;3.10;;
38113;SDS011;23926;53.222;6.354;2022-10-24T05:27:00;6.72;;;2.33;;
38113;SDS011;23926;53.222;6.354;2022-10-24T05:29:25;8.07;;;2.70;;
38113;SDS011;23926;53.222;6.354;2022-10-24T05:31:51;6.40;;;3.00;;
38113;SDS011;23926;53.222;6.354;2022-10-24T05:34:16;9.70;;;2.65;;
38113;SDS011;23926;53.222;6.354;2022-10-24T05:36:42;7.32;;;2.42;;
38113;SDS011;23926;53.222;6.354;2022-10-24T05:39:07;4.65;;;2.72;;
38113;SDS011;23926;53.222;6.354;2022-10-24T05:41:32;5.32;;;2.40;;
38113;SDS011;23926;53.222;6.354;2022-10-24T05:43:58;6.18;;;2.90;;
38113;SDS011;23926;53.222;6.354;2022-10-24T05:46:23;3.28;;;2.20;;
38113;SDS011;23926;53.222;6.354;2022-10-24T05:48:49;7.88;;;2.58;;
38113;SDS011;23926;53.222;6.354;2022-10-24T05:51:14;5.53;;;2.30;;
38113;SDS011;23926;53.222;6.354;2022-10-24T05:53:39;6.38;;;2.53;;
38113;SDS011;23926;53.222;6.354;2022-10-24T05:56:05;10.85;;;2.60;;
38113;SDS011;23926;53.222;6.354;2022-10-24T05:58:31;5.80;;;2.38;;
38113;SDS011;23926;53.222;6.354;2022-10-24T06:00:56;11.13;;;2.60;;
38113;SDS011;23926;53.222;6.354;2022-10-24T06:03:22;10.98;;;2.30;;
38113;SDS011;23926;53.222;6.354;2022-10-24T06:05:48;4.47;;;2.00;;
38113;SDS011;23926;53.222;6.354;2022-10-24T06:08:14;7.50;;;2.35;;
38113;SDS011;23926;53.222;6.354;2022-10-24T06:10:39;4.63;;;1.90;;
38113;SDS011;23926;53.222;6.354;2022-10-24T06:13:05;7.93;;;1.92;;
38113;SDS011;23926;53.222;6.354;2022-10-24T06:15:30;11.18;;;2.40;;
38113;SDS011;23926;53.222;6.354;2022-10-24T06:17:56;6.75;;;2.10;;
38113;SDS011;23926;53.222;6.354;2022-10-24T06:20:21;6.22;;;2.00;;
38113;SDS011;23926;53.222;6.354;2022-10-24T06:22:47;11.45;;;2.50;;
38113;SDS011;23926;53.222;6.354;2022-10-24T06:25:13;7.05;;;2.35;;
38113;SDS011;23926;53.222;6.354;2022-10-24T06:27:39;8.38;;;2.03;;
38113;SDS011;23926;53.222;6.354;2022-10-24T06:30:05;6.63;;;2.05;;
38113;SDS011;23926;53.222;6.354;2022-10-24T06:32:31;11.77;;;2.53;;
38113;SDS011;23926;53.222;6.354;2022-10-24T06:34:57;9.13;;;1.95;;
38113;SDS011;23926;53.222;6.354;2022-10-24T06:37:22;6.20;;;2.28;;
38113;SDS011;23926;53.222;6.354;2022-10-24T06:39:48;6.43;;;1.90;;
38113;SDS011;23926;53.222;6.354;2022-10-24T06:42:13;10.73;;;2.30;;
38113;SDS011;23926;53.222;6.354;2022-10-24T06:44:39;8.00;;;2.25;;
38113;SDS011;23926;53.222;6.354;2022-10-24T06:47:04;7.72;;;2.10;;
38113;SDS011;23926;53.222;6.354;2022-10-24T06:49:30;6.20;;;2.22;;
38113;SDS011;23926;53.222;6.354;2022-10-24T06:51:56;8.73;;;2.30;;
38113;SDS011;23926;53.222;6.354;2022-10-24T06:54:21;6.78;;;1.98;;
38113;SDS011;23926;53.222;6.354;2022-10-24T06:56:47;3.53;;;1.50;;
38113;SDS011;23926;53.222;6.354;2022-10-24T06:59:13;5.40;;;1.80;;
38113;SDS011;23926;53.222;6.354;2022-10-24T07:01:40;6.55;;;2.30;;
38113;SDS011;23926;53.222;6.354;2022-10-24T07:04:06;8.85;;;2.10;;
38113;SDS011;23926;53.222;6.354;2022-10-24T07:06:32;7.88;;;1.75;;
38113;SDS011;23926;53.222;6.354;2022-10-24T07:08:58;7.38;;;2.35;;
38113;SDS011;23926;53.222;6.354;2022-10-24T07:11:25;4.22;;;1.70;;
38113;SDS011;23926;53.222;6.354;2022-10-24T07:13:51;5.53;;;1.75;;
38113;SDS011;23926;53.222;6.354;2022-10-24T07:16:16;6.60;;;2.28;;
38113;SDS011;23926;53.222;6.354;2022-10-24T07:18:42;9.23;;;2.55;;
38113;SDS011;23926;53.222;6.354;2022-10-24T07:21:19;6.25;;;2.20;;
38113;SDS011;23926;53.222;6.354;2022-10-24T07:23:46;4.65;;;1.80;;
38113;SDS011;23926;53.222;6.354;2022-10-24T07:26:14;3.88;;;1.92;;
38113;SDS011;23926;53.222;6.354;2022-10-24T07:28:41;10.82;;;1.95;;
38113;SDS011;23926;53.222;6.354;2022-10-24T07:31:10;5.80;;;2.47;;
38113;SDS011;23926;53.222;6.354;2022-10-24T07:33:38;7.88;;;1.90;;
38113;SDS011;23926;53.222;6.354;2022-10-24T07:36:04;6.78;;;1.83;;
38113;SDS011;23926;53.222;6.354;2022-10-24T07:38:30;4.80;;;1.70;;
38113;SDS011;23926;53.222;6.354;2022-10-24T07:40:55;8.35;;;1.92;;
38113;SDS011;23926;53.222;6.354;2022-10-24T07:43:21;7.80;;;1.70;;
38113;SDS011;23926;53.222;6.354;2022-10-24T07:45:46;6.32;;;1.70;;
38113;SDS011;23926;53.222;6.354;2022-10-24T07:48:12;10.43;;;2.17;;
38113;SDS011;23926;53.222;6.354;2022-10-24T07:50:42;11.27;;;2.05;;
38113;SDS011;23926;53.222;6.354;2022-10-24T07:53:09;7.82;;;1.80;;
38113;SDS011;23926;53.222;6.354;2022-10-24T07:55:36;7.10;;;1.52;;
38113;SDS011;23926;53.222;6.354;2022-10-24T07:58:05;6.60;;;1.90;;
38113;SDS011;23926;53.222;6.354;2022-10-24T08:00:33;5.57;;;1.98;;
38113;SDS011;23926;53.222;6.354;2022-10-24T08:02:59;10.50;;;1.88;;
38113;SDS011;23926;53.222;6.354;2022-10-24T08:05:24;6.15;;;1.67;;
38113;SDS011;23926;53.222;6.354;2022-10-24T08:07:49;7.30;;;1.75;;
38113;SDS011;23926;53.222;6.354;2022-10-24T08:10:15;4.90;;;1.75;;
38113;SDS011;23926;53.222;6.354;2022-10-24T08:12:41;5.95;;;1.98;;
38113;SDS011;23926;53.222;6.354;2022-10-24T08:15:07;5.85;;;1.55;;
38113;SDS011;23926;53.222;6.354;2022-10-24T08:17:33;7.68;;;1.80;;
38113;SDS011;23926;53.222;6.354;2022-10-24T08:20:01;5.28;;;1.42;;
38113;SDS011;23926;53.222;6.354;2022-10-24T08:22:28;8.68;;;2.08;;
38113;SDS011;23926;53.222;6.354;2022-10-24T08:24:54;9.75;;;1.90;;
38113;SDS011;23926;53.222;6.354;2022-10-24T08:27:19;12.98;;;2.08;;
38113;SDS011;23926;53.222;6.354;2022-10-24T08:29:44;6.55;;;2.13;;
38113;SDS011;23926;53.222;6.354;2022-10-24T08:32:10;11.13;;;2.58;;
38113;SDS011;23926;53.222;6.354;2022-10-24T08:34:36;9.60;;;2.53;;
38113;SDS011;23926;53.222;6.354;2022-10-24T08:37:02;11.27;;;2.00;;
38113;SDS011;23926;53.222;6.354;2022-10-24T08:39:27;6.32;;;1.45;;
38113;SDS011;23926;53.222;6.354;2022-10-24T08:41:53;7.43;;;1.90;;
38113;SDS011;23926;53.222;6.354;2022-10-24T08:44:26;9.85;;;2.33;;
38113;SDS011;23926;53.222;6.354;2022-10-24T08:46:58;6.43;;;2.40;;
38113;SDS011;23926;53.222;6.354;2022-10-24T08:52:19;5.00;;;1.70;;
38113;SDS011;23926;53.222;6.354;2022-10-24T08:54:46;4.90;;;1.30;;
38113;SDS011;23926;53.222;6.354;2022-10-24T08:57:30;7.43;;;1.60;;
38113;SDS011;23926;53.222;6.354;2022-10-24T08:59:59;5.65;;;1.80;;
38113;SDS011;23926;53.222;6.354;2022-10-24T09:02:29;6.00;;;2.10;;
38113;SDS011;23926;53.222;6.354;2022-10-24T09:05:42;8.27;;;1.67;;
38113;SDS011;23926;53.222;6.354;2022-10-24T09:07:54;11.77;;;1.60;;
38113;SDS011;23926;53.222;6.354;2022-10-24T09:10:40;6.13;;;1.83;;
38113;SDS011;23926;53.222;6.354;2022-10-24T09:13:12;9.98;;;1.80;;
38113;SDS011;23926;53.222;6.354;2022-10-24T09:15:39;5.25;;;1.85;;
38113;SDS011;23926;53.222;6.354;2022-10-24T09:18:22;9.23;;;1.95;;
38113;SDS011;23926;53.222;6.354;2022-10-24T09:20:51;9.85;;;1.92;;
38113;SDS011;23926;53.222;6.354;2022-10-24T09:23:18;5.70;;;1.92;;
38113;SDS011;23926;53.222;6.354;2022-10-24T09:25:47;7.70;;;2.55;;
38113;SDS011;23926;53.222;6.354;2022-10-24T09:28:15;9.82;;;2.05;;
38113;SDS011;23926;53.222;6.354;2022-10-24T09:30:41;7.22;;;2.03;;
38113;SDS011;23926;53.222;6.354;2022-10-24T09:33:27;7.22;;;1.90;;
38113;SDS011;23926;53.222;6.354;2022-10-24T09:35:55;7.93;;;2.20;;
38113;SDS011;23926;53.222;6.354;2022-10-24T09:38:31;8.65;;;2.30;;
38113;SDS011;23926;53.222;6.354;2022-10-24T09:40:59;7.75;;;1.73;;
38113;SDS011;23926;53.222;6.354;2022-10-24T09:48:46;6.40;;;1.75;;
38113;SDS011;23926;53.222;6.354;2022-10-24T09:53:58;7.72;;;1.67;;
38113;SDS011;23926;53.222;6.354;2022-10-24T09:56:57;7.80;;;1.83;;
38113;SDS011;23926;53.222;6.354;2022-10-24T09:59:31;9.10;;;1.90;;
38113;SDS011;23926;53.222;6.354;2022-10-24T10:04:34;9.25;;;1.95;;
38113;SDS011;23926;53.222;6.354;2022-10-24T10:07:01;7.82;;;2.08;;
38113;SDS011;23926;53.222;6.354;2022-10-24T10:09:47;10.77;;;2.08;;
38113;SDS011;23926;53.222;6.354;2022-10-24T10:12:31;12.48;;;2.38;;
38113;SDS011;23926;53.222;6.354;2022-10-24T10:14:57;8.68;;;1.80;;
38113;SDS011;23926;53.222;6.354;2022-10-24T10:17:25;9.68;;;1.77;;
38113;SDS011;23926;53.222;6.354;2022-10-24T10:19:52;9.23;;;2.08;;
38113;SDS011;23926;53.222;6.354;2022-10-24T10:22:26;10.82;;;1.90;;
38113;SDS011;23926;53.222;6.354;2022-10-24T10:24:54;7.93;;;1.70;;
38113;SDS011;23926;53.222;6.354;2022-10-24T10:35:21;9.20;;;1.75;;
38113;SDS011;23926;53.222;6.354;2022-10-24T10:38:05;11.32;;;2.15;;
38113;SDS011;23926;53.222;6.354;2022-10-24T10:40:44;7.43;;;2.00;;
38113;SDS011;23926;53.222;6.354;2022-10-24T10:51:49;10.30;;;2.20;;
38113;SDS011;23926;53.222;6.354;2022-10-24T10:57:07;13.15;;;2.47;;
38113;SDS011;23926;53.222;6.354;2022-10-24T11:02:08;10.13;;;2.55;;
38113;SDS011;23926;53.222;6.354;2022-10-24T11:10:26;8.05;;;1.70;;
38113;SDS011;23926;53.222;6.354;2022-10-24T11:12:56;9.90;;;1.73;;
38113;SDS011;23926;53.222;6.354;2022-10-24T11:15:28;5.32;;;1.85;;
38113;SDS011;23926;53.222;6.354;2022-10-24T11:20:40;6.28;;;1.77;;
38113;SDS011;23926;53.222;6.354;2022-10-24T11:23:26;7.65;;;1.80;;
38113;SDS011;23926;53.222;6.354;2022-10-24T11:26:20;11.60;;;2.08;;
38113;SDS011;23926;53.222;6.354;2022-10-24T11:32:01;8.02;;;1.67;;
38113;SDS011;23926;53.222;6.354;2022-10-24T11:34:44;9.93;;;1.63;;
38113;SDS011;23926;53.222;6.354;2022-10-24T11:37:26;11.93;;;2.72;;
38113;SDS011;23926;53.222;6.354;2022-10-24T11:40:11;9.75;;;2.45;;
38113;SDS011;23926;53.222;6.354;2022-10-24T11:43:00;8.50;;;1.85;;
38113;SDS011;23926;53.222;6.354;2022-10-24T11:53:38;16.15;;;2.35;;
38113;SDS011;23926;53.222;6.354;2022-10-24T11:56:13;9.27;;;2.15;;
38113;SDS011;23926;53.222;6.354;2022-10-24T11:58:48;5.20;;;1.70;;
38113;SDS011;23926;53.222;6.354;2022-10-24T12:04:07;11.93;;;1.85;;
38113;SDS011;23926;53.222;6.354;2022-10-24T12:15:16;7.05;;;1.50;;
38113;SDS011;23926;53.222;6.354;2022-10-24T12:17:59;8.02;;;2.05;;
38113;SDS011;23926;53.222;6.354;2022-10-24T12:20:32;7.63;;;2.42;;
38113;SDS011;23926;53.222;6.354;2022-10-24T12:22:59;7.63;;;2.22;;
38113;SDS011;23926;53.222;6.354;2022-10-24T12:25:27;5.80;;;2.05;;
38113;SDS011;23926;53.222;6.354;2022-10-24T12:28:02;9.48;;;1.88;;
38113;SDS011;23926;53.222;6.354;2022-10-24T12:30:29;11.52;;;2.35;;
38113;SDS011;23926;53.222;6.354;2022-10-24T12:33:11;12.10;;;2.63;;
38113;SDS011;23926;53.222;6.354;2022-10-24T12:35:51;8.48;;;1.80;;
38113;SDS011;23926;53.222;6.354;2022-10-24T12:40:53;8.35;;;1.83;;
38113;SDS011;23926;53.222;6.354;2022-10-24T12:45:53;7.38;;;1.80;;
38113;SDS011;23926;53.222;6.354;2022-10-24T12:51:02;9.65;;;2.30;;
38113;SDS011;23926;53.222;6.354;2022-10-24T12:56:06;10.10;;;2.73;;
38113;SDS011;23926;53.222;6.354;2022-10-24T12:58:34;10.93;;;2.20;;
38113;SDS011;23926;53.222;6.354;2022-10-24T13:17:07;10.20;;;1.80;;
38113;SDS011;23926;53.222;6.354;2022-10-24T13:19:33;11.25;;;2.15;;
38113;SDS011;23926;53.222;6.354;2022-10-24T13:22:00;8.38;;;1.88;;
38113;SDS011;23926;53.222;6.354;2022-10-24T13:24:27;10.77;;;2.83;;
38113;SDS011;23926;53.222;6.354;2022-10-24T13:31:46;11.88;;;1.58;;
38113;SDS011;23926;53.222;6.354;2022-10-24T13:34:20;12.15;;;2.55;;
38113;SDS011;23926;53.222;6.354;2022-10-24T13:36:56;11.40;;;2.30;;
38113;SDS011;23926;53.222;6.354;2022-10-24T13:39:26;7.00;;;1.58;;
38113;SDS011;23926;53.222;6.354;2022-10-24T13:41:58;9.38;;;1.85;;
38113;SDS011;23926;53.222;6.354;2022-10-24T13:44:36;5.87;;;1.70;;
38113;SDS011;23926;53.222;6.354;2022-10-24T13:49:57;6.82;;;1.58;;
38113;SDS011;23926;53.222;6.354;2022-10-24T13:55:12;9.68;;;1.98;;
38113;SDS011;23926;53.222;6.354;2022-10-24T13:57:51;6.35;;;1.80;;
38113;SDS011;23926;53.222;6.354;2022-10-24T14:00:22;5.60;;;1.80;;
38113;SDS011;23926;53.222;6.354;2022-10-24T14:02:53;11.73;;;2.08;;
38113;SDS011;23926;53.222;6.354;2022-10-24T14:05:28;6.57;;;1.58;;
38113;SDS011;23926;53.222;6.354;2022-10-24T14:07:56;8.65;;;1.80;;
38113;SDS011;23926;53.222;6.354;2022-10-24T14:10:22;8.13;;;1.50;;
38113;SDS011;23926;53.222;6.354;2022-10-24T14:12:48;10.25;;;1.77;;
38113;SDS011;23926;53.222;6.354;2022-10-24T14:15:21;4.88;;;1.35;;
38113;SDS011;23926;53.222;6.354;2022-10-24T14:17:53;7.28;;;1.88;;
38113;SDS011;23926;53.222;6.354;2022-10-24T14:20:23;10.57;;;2.35;;
38113;SDS011;23926;53.222;6.354;2022-10-24T14:22:55;8.02;;;2.10;;
38113;SDS011;23926;53.222;6.354;2022-10-24T14:25:22;7.47;;;1.70;;
38113;SDS011;23926;53.222;6.354;2022-10-24T14:27:55;4.28;;;1.52;;
38113;SDS011;23926;53.222;6.354;2022-10-24T14:30:24;6.55;;;1.85;;
38113;SDS011;23926;53.222;6.354;2022-10-24T14:33:16;7.22;;;2.10;;
38113;SDS011;23926;53.222;6.354;2022-10-24T14:35:45;8.20;;;1.92;;
38113;SDS011;23926;53.222;6.354;2022-10-24T14:38:12;8.73;;;2.05;;
38113;SDS011;23926;53.222;6.354;2022-10-24T14:40:40;5.80;;;1.42;;
38113;SDS011;23926;53.222;6.354;2022-10-24T14:43:28;6.90;;;1.90;;
38113;SDS011;23926;53.222;6.354;2022-10-24T14:48:38;7.00;;;1.83;;
38113;SDS011;23926;53.222;6.354;2022-10-24T14:53:45;7.72;;;2.22;;
38113;SDS011;23926;53.222;6.354;2022-10-24T14:56:23;9.73;;;2.42;;
38113;SDS011;23926;53.222;6.354;2022-10-24T14:58:50;11.10;;;2.03;;
38113;SDS011;23926;53.222;6.354;2022-10-24T15:01:17;11.57;;;2.47;;
38113;SDS011;23926;53.222;6.354;2022-10-24T15:06:26;8.68;;;2.65;;
38113;SDS011;23926;53.222;6.354;2022-10-24T15:11:42;8.45;;;2.65;;
38113;SDS011;23926;53.222;6.354;2022-10-24T15:14:32;14.35;;;2.45;;
38113;SDS011;23926;53.222;6.354;2022-10-24T15:17:04;7.43;;;2.10;;
38113;SDS011;23926;53.222;6.354;2022-10-24T15:19:44;7.00;;;2.13;;
38113;SDS011;23926;53.222;6.354;2022-10-24T15:22:27;6.18;;;2.30;;
38113;SDS011;23926;53.222;6.354;2022-10-24T15:24:55;12.98;;;2.50;;
38113;SDS011;23926;53.222;6.354;2022-10-24T15:27:28;9.18;;;2.10;;
38113;SDS011;23926;53.222;6.354;2022-10-24T15:29:55;4.72;;;1.88;;
38113;SDS011;23926;53.222;6.354;2022-10-24T15:32:21;8.55;;;2.30;;
38113;SDS011;23926;53.222;6.354;2022-10-24T15:34:48;10.15;;;2.30;;
38113;SDS011;23926;53.222;6.354;2022-10-24T15:37:17;7.65;;;2.25;;
38113;SDS011;23926;53.222;6.354;2022-10-24T15:39:44;7.88;;;2.40;;
38113;SDS011;23926;53.222;6.354;2022-10-24T15:42:09;8.70;;;2.50;;
38113;SDS011;23926;53.222;6.354;2022-10-24T15:44:35;6.82;;;2.08;;
38113;SDS011;23926;53.222;6.354;2022-10-24T15:47:00;8.43;;;2.40;;
38113;SDS011;23926;53.222;6.354;2022-10-24T15:49:26;9.18;;;2.65;;
38113;SDS011;23926;53.222;6.354;2022-10-24T15:51:53;7.10;;;3.08;;
38113;SDS011;23926;53.222;6.354;2022-10-24T15:54:20;8.63;;;2.55;;
38113;SDS011;23926;53.222;6.354;2022-10-24T15:56:47;6.97;;;2.40;;
38113;SDS011;23926;53.222;6.354;2022-10-24T15:59:13;10.48;;;2.83;;
38113;SDS011;23926;53.222;6.354;2022-10-24T16:01:40;9.20;;;2.83;;
38113;SDS011;23926;53.222;6.354;2022-10-24T16:04:11;6.60;;;2.10;;
38113;SDS011;23926;53.222;6.354;2022-10-24T16:06:37;5.97;;;2.80;;
38113;SDS011;23926;53.222;6.354;2022-10-24T16:09:03;7.88;;;2.80;;
38113;SDS011;23926;53.222;6.354;2022-10-24T16:11:30;9.50;;;2.83;;
38113;SDS011;23926;53.222;6.354;2022-10-24T16:13:56;6.32;;;2.75;;
38113;SDS011;23926;53.222;6.354;2022-10-24T16:16:22;6.45;;;2.30;;
38113;SDS011;23926;53.222;6.354;2022-10-24T16:18:47;9.93;;;2.67;;
38113;SDS011;23926;53.222;6.354;2022-10-24T16:21:15;9.18;;;2.40;;
38113;SDS011;23926;53.222;6.354;2022-10-24T16:23:42;6.88;;;1.90;;
38113;SDS011;23926;53.222;6.354;2022-10-24T16:26:08;4.68;;;2.38;;
38113;SDS011;23926;53.222;6.354;2022-10-24T16:28:33;6.00;;;2.28;;
38113;SDS011;23926;53.222;6.354;2022-10-24T16:30:59;9.57;;;2.30;;
38113;SDS011;23926;53.222;6.354;2022-10-24T16:33:24;4.93;;;1.80;;
38113;SDS011;23926;53.222;6.354;2022-10-24T16:35:49;5.50;;;1.95;;
38113;SDS011;23926;53.222;6.354;2022-10-24T16:38:16;3.83;;;2.20;;
38113;SDS011;23926;53.222;6.354;2022-10-24T16:40:42;8.02;;;2.50;;
38113;SDS011;23926;53.222;6.354;2022-10-24T16:43:10;7.88;;;2.00;;
38113;SDS011;23926;53.222;6.354;2022-10-24T16:45:37;6.05;;;1.90;;
38113;SDS011;23926;53.222;6.354;2022-10-24T16:48:02;5.82;;;2.00;;
38113;SDS011;23926;53.222;6.354;2022-10-24T16:50:28;8.52;;;3.00;;
38113;SDS011;23926;53.222;6.354;2022-10-24T16:52:58;10.80;;;2.83;;
38113;SDS011;23926;53.222;6.354;2022-10-24T16:55:26;7.28;;;2.30;;
38113;SDS011;23926;53.222;6.354;2022-10-24T16:57:52;6.43;;;2.25;;
38113;SDS011;23926;53.222;6.354;2022-10-24T17:00:19;4.88;;;1.90;;
38113;SDS011;23926;53.222;6.354;2022-10-24T17:02:45;6.97;;;2.40;;
38113;SDS011;23926;53.222;6.354;2022-10-24T17:05:12;5.03;;;2.42;;
38113;SDS011;23926;53.222;6.354;2022-10-24T17:07:38;7.68;;;2.42;;
38113;SDS011;23926;53.222;6.354;2022-10-24T17:10:04;4.05;;;2.05;;
38113;SDS011;23926;53.222;6.354;2022-10-24T17:12:30;6.28;;;3.17;;
38113;SDS011;23926;53.222;6.354;2022-10-24T17:14:55;6.32;;;2.65;;
38113;SDS011;23926;53.222;6.354;2022-10-24T17:17:21;9.55;;;2.92;;
38113;SDS011;23926;53.222;6.354;2022-10-24T17:19:46;8.70;;;2.70;;